Pitt Meadows, British Columbia

19:21 PST le 26 janvier 2015 (GMT -0800)
Pitt Meadows Chez Douglas | Change Station
CLOSE
Current Station
Stations météorologiques personnelles
Location: Pitt Meadows, BRITISH COLUMBIA
Altitude: 66 ft
Stations météo à proximité

Alt. 66 ft 49.22 °N, 122.69 °W | Updated 7 minutes ago

Partly Cloudy
Partiellement nuageux
47.7 ° F
Paraît 48 ° F
N
2.2
Vent Variable Vent de SSO

Aujourd'hui
Haut(e) -- | Bas -- ° F
--% Risque de précip.
Hier
Haut(e) -- | Bas -- ° F
Precip. -- pouce
7:49 AM 4:57 PM
Lune montante, 49% visible
Pression 29.93 pouce
Visibilité 15.0 Miles terrestres
Nuages Peu 22000 ft
Refroidissement éolien 48 ° F
Point de rosée 44 ° F
Humidité 88%
Précipitations 0.00 pouce
Profondeur de la couche neigeuse Non disponible.
UV 0 sur 12
Pollen Non disponible.
Qualité de l'air Non disponible.
Flu Activity Non disponible.
METAR CYXX 270300Z 18004KT 170V240 15SM FEW220 07/06 A2992 RMK CI1 SLP133

More Conditions Fewer Conditions

Pression 29.93 pouce
Visibilité 15.0 Miles terrestres
Nuages Peu 22000 ft
Refroidissement éolien 48 ° F
Point de rosée 44 ° F
Humidité 88%
Précipitations 0.00 pouce
Profondeur de la couche neigeuse Non disponible.
UV 0 sur 12
Pollen Non disponible.
Qualité de l'air Non disponible.
Flu Activity Non disponible.
METAR CYXX 270300Z 18004KT 170V240 15SM FEW220 07/06 A2992 RMK CI1 SLP133

More Conditions Fewer Conditions

10-Day Weather Forecast

Almanac

Astronomie

Jan. 26, 2015 Lever Coucher
Temps réel
Crépuscule civil
Crépuscule nautique
Crépuscule astronomique
Lune
Durée de lumière visible
Longueur du jour
Tomorrow will be .
, % of the Moon is Illuminated

Extrêmes aujourd'hui

Country Highs Country Lows

Community

WunderPhotos

Upload Photos

1,790,499 Photos téléchargées !

WunderBlogs® & News

Nearby

Qualité de l'air

  Qualité de l'air Indice de la qualité de l'air Polluant
Not available.

Épaisseur de neige

Station Depth Altitude

Activité sismique

Ville Distance Mag. Time & Date
Minimum magnitude displayed is 2.5.

Températures des eaux côtières

Lieu Température

Stations météo à proximité